sensor_id;sensor_type;location;lat;lon;timestamp;P1;durP1;ratioP1;P2;durP2;ratioP2
65936;SDS011;52707;52.086;5.418;2023-06-10T00:00:01;8.18;;;5.75;;
65936;SDS011;52707;52.086;5.418;2023-06-10T00:02:27;11.15;;;6.18;;
65936;SDS011;52707;52.086;5.418;2023-06-10T00:04:54;8.73;;;5.57;;
65936;SDS011;52707;52.086;5.418;2023-06-10T00:07:21;14.18;;;6.00;;
65936;SDS011;52707;52.086;5.418;2023-06-10T00:09:48;8.95;;;5.50;;
65936;SDS011;52707;52.086;5.418;2023-06-10T00:12:14;13.00;;;5.75;;
65936;SDS011;52707;52.086;5.418;2023-06-10T00:14:43;11.75;;;5.95;;
65936;SDS011;52707;52.086;5.418;2023-06-10T00:17:09;9.52;;;5.38;;
65936;SDS011;52707;52.086;5.418;2023-06-10T00:19:36;9.98;;;5.88;;
65936;SDS011;52707;52.086;5.418;2023-06-10T00:22:02;11.52;;;6.07;;
65936;SDS011;52707;52.086;5.418;2023-06-10T00:24:31;8.98;;;5.55;;
65936;SDS011;52707;52.086;5.418;2023-06-10T00:26:57;19.88;;;6.70;;
65936;SDS011;52707;52.086;5.418;2023-06-10T00:29:23;10.32;;;5.75;;
65936;SDS011;52707;52.086;5.418;2023-06-10T00:31:50;12.02;;;5.25;;
65936;SDS011;52707;52.086;5.418;2023-06-10T00:34:16;11.30;;;6.05;;
65936;SDS011;52707;52.086;5.418;2023-06-10T00:36:42;18.27;;;6.28;;
65936;SDS011;52707;52.086;5.418;2023-06-10T00:39:09;13.63;;;5.60;;
65936;SDS011;52707;52.086;5.418;2023-06-10T00:41:35;10.30;;;6.25;;
65936;SDS011;52707;52.086;5.418;2023-06-10T00:44:02;6.85;;;5.25;;
65936;SDS011;52707;52.086;5.418;2023-06-10T00:46:28;10.75;;;5.53;;
65936;SDS011;52707;52.086;5.418;2023-06-10T00:48:55;7.05;;;5.25;;
65936;SDS011;52707;52.086;5.418;2023-06-10T00:51:22;10.70;;;5.57;;
65936;SDS011;52707;52.086;5.418;2023-06-10T00:53:48;10.27;;;5.18;;
65936;SDS011;52707;52.086;5.418;2023-06-10T00:56:15;11.73;;;5.35;;
65936;SDS011;52707;52.086;5.418;2023-06-10T00:58:42;10.18;;;5.28;;
65936;SDS011;52707;52.086;5.418;2023-06-10T01:01:08;11.00;;;5.28;;
65936;SDS011;52707;52.086;5.418;2023-06-10T01:03:37;11.95;;;5.22;;
65936;SDS011;52707;52.086;5.418;2023-06-10T01:08:41;12.63;;;5.32;;
65936;SDS011;52707;52.086;5.418;2023-06-10T01:11:13;8.55;;;5.28;;
65936;SDS011;52707;52.086;5.418;2023-06-10T01:13:43;8.15;;;5.43;;
65936;SDS011;52707;52.086;5.418;2023-06-10T01:16:10;11.15;;;5.43;;
65936;SDS011;52707;52.086;5.418;2023-06-10T01:18:36;8.63;;;5.25;;
65936;SDS011;52707;52.086;5.418;2023-06-10T01:21:04;13.20;;;5.22;;
65936;SDS011;52707;52.086;5.418;2023-06-10T01:23:31;8.48;;;5.40;;
65936;SDS011;52707;52.086;5.418;2023-06-10T01:26:06;9.18;;;5.25;;
65936;SDS011;52707;52.086;5.418;2023-06-10T01:31:36;12.82;;;5.32;;
65936;SDS011;52707;52.086;5.418;2023-06-10T01:34:09;7.50;;;5.13;;
65936;SDS011;52707;52.086;5.418;2023-06-10T01:36:36;10.35;;;5.07;;
65936;SDS011;52707;52.086;5.418;2023-06-10T01:39:03;12.18;;;6.07;;
65936;SDS011;52707;52.086;5.418;2023-06-10T01:41:31;11.40;;;5.25;;
65936;SDS011;52707;52.086;5.418;2023-06-10T01:43:57;6.95;;;5.40;;
65936;SDS011;52707;52.086;5.418;2023-06-10T01:46:24;7.45;;;5.22;;
65936;SDS011;52707;52.086;5.418;2023-06-10T01:48:50;15.70;;;5.65;;
65936;SDS011;52707;52.086;5.418;2023-06-10T01:51:17;9.13;;;5.63;;
65936;SDS011;52707;52.086;5.418;2023-06-10T01:53:43;14.20;;;5.50;;
65936;SDS011;52707;52.086;5.418;2023-06-10T01:56:09;15.65;;;5.70;;
65936;SDS011;52707;52.086;5.418;2023-06-10T01:58:36;10.35;;;5.63;;
65936;SDS011;52707;52.086;5.418;2023-06-10T02:01:02;11.27;;;5.45;;
65936;SDS011;52707;52.086;5.418;2023-06-10T02:03:29;9.73;;;4.57;;
65936;SDS011;52707;52.086;5.418;2023-06-10T02:05:55;9.50;;;5.38;;
65936;SDS011;52707;52.086;5.418;2023-06-10T02:08:22;8.63;;;5.15;;
65936;SDS011;52707;52.086;5.418;2023-06-10T02:10:48;9.52;;;5.47;;
65936;SDS011;52707;52.086;5.418;2023-06-10T02:13:14;11.43;;;6.13;;
65936;SDS011;52707;52.086;5.418;2023-06-10T02:15:41;13.93;;;5.60;;
65936;SDS011;52707;52.086;5.418;2023-06-10T02:18:07;14.82;;;5.47;;
65936;SDS011;52707;52.086;5.418;2023-06-10T02:20:34;9.38;;;5.28;;
65936;SDS011;52707;52.086;5.418;2023-06-10T02:23:00;8.73;;;5.10;;
65936;SDS011;52707;52.086;5.418;2023-06-10T02:25:26;14.18;;;5.93;;
65936;SDS011;52707;52.086;5.418;2023-06-10T02:27:53;7.88;;;5.20;;
65936;SDS011;52707;52.086;5.418;2023-06-10T02:30:19;10.88;;;5.68;;
65936;SDS011;52707;52.086;5.418;2023-06-10T02:32:45;10.73;;;5.40;;
65936;SDS011;52707;52.086;5.418;2023-06-10T02:35:14;11.57;;;6.20;;
65936;SDS011;52707;52.086;5.418;2023-06-10T02:37:41;9.57;;;5.75;;
65936;SDS011;52707;52.086;5.418;2023-06-10T02:40:07;8.75;;;5.45;;
65936;SDS011;52707;52.086;5.418;2023-06-10T02:42:34;22.42;;;5.88;;
65936;SDS011;52707;52.086;5.418;2023-06-10T02:45:01;15.95;;;5.97;;
65936;SDS011;52707;52.086;5.418;2023-06-10T02:47:27;11.55;;;5.70;;
65936;SDS011;52707;52.086;5.418;2023-06-10T02:49:53;8.98;;;5.95;;
65936;SDS011;52707;52.086;5.418;2023-06-10T02:52:20;9.38;;;5.93;;
65936;SDS011;52707;52.086;5.418;2023-06-10T02:54:46;11.00;;;6.25;;
65936;SDS011;52707;52.086;5.418;2023-06-10T02:57:13;10.38;;;6.32;;
65936;SDS011;52707;52.086;5.418;2023-06-10T02:59:40;11.40;;;6.40;;
65936;SDS011;52707;52.086;5.418;2023-06-10T03:02:07;12.85;;;6.35;;
65936;SDS011;52707;52.086;5.418;2023-06-10T03:04:33;13.40;;;6.20;;
65936;SDS011;52707;52.086;5.418;2023-06-10T03:07:00;10.77;;;6.25;;
65936;SDS011;52707;52.086;5.418;2023-06-10T03:09:29;11.60;;;5.93;;
65936;SDS011;52707;52.086;5.418;2023-06-10T03:11:56;15.50;;;6.25;;
65936;SDS011;52707;52.086;5.418;2023-06-10T03:14:22;12.35;;;6.00;;
65936;SDS011;52707;52.086;5.418;2023-06-10T03:16:48;11.68;;;6.05;;
65936;SDS011;52707;52.086;5.418;2023-06-10T03:19:14;11.27;;;6.10;;
65936;SDS011;52707;52.086;5.418;2023-06-10T03:21:43;15.38;;;6.22;;
65936;SDS011;52707;52.086;5.418;2023-06-10T03:24:09;8.68;;;5.93;;
65936;SDS011;52707;52.086;5.418;2023-06-10T03:26:37;10.43;;;5.53;;
65936;SDS011;52707;52.086;5.418;2023-06-10T03:29:03;19.02;;;7.00;;
65936;SDS011;52707;52.086;5.418;2023-06-10T03:31:29;13.23;;;6.03;;
65936;SDS011;52707;52.086;5.418;2023-06-10T03:33:57;17.45;;;6.50;;
65936;SDS011;52707;52.086;5.418;2023-06-10T03:36:24;13.20;;;6.72;;
65936;SDS011;52707;52.086;5.418;2023-06-10T03:38:55;11.82;;;6.53;;
65936;SDS011;52707;52.086;5.418;2023-06-10T03:41:22;11.10;;;5.57;;
65936;SDS011;52707;52.086;5.418;2023-06-10T03:43:49;8.27;;;5.70;;
65936;SDS011;52707;52.086;5.418;2023-06-10T03:46:15;13.25;;;6.53;;
65936;SDS011;52707;52.086;5.418;2023-06-10T03:48:44;10.88;;;5.75;;
65936;SDS011;52707;52.086;5.418;2023-06-10T03:51:10;10.23;;;6.40;;
65936;SDS011;52707;52.086;5.418;2023-06-10T03:53:36;10.52;;;5.70;;
65936;SDS011;52707;52.086;5.418;2023-06-10T03:56:03;14.73;;;5.85;;
65936;SDS011;52707;52.086;5.418;2023-06-10T03:58:29;11.52;;;5.85;;
65936;SDS011;52707;52.086;5.418;2023-06-10T04:00:55;9.88;;;6.32;;
65936;SDS011;52707;52.086;5.418;2023-06-10T04:03:21;10.82;;;5.80;;
65936;SDS011;52707;52.086;5.418;2023-06-10T04:05:49;14.80;;;5.93;;
65936;SDS011;52707;52.086;5.418;2023-06-10T04:08:16;19.88;;;7.07;;
65936;SDS011;52707;52.086;5.418;2023-06-10T04:10:43;14.77;;;6.05;;
65936;SDS011;52707;52.086;5.418;2023-06-10T04:13:10;19.50;;;6.00;;
65936;SDS011;52707;52.086;5.418;2023-06-10T04:15:36;13.80;;;5.60;;
65936;SDS011;52707;52.086;5.418;2023-06-10T04:18:02;10.65;;;6.07;;
65936;SDS011;52707;52.086;5.418;2023-06-10T04:20:29;12.05;;;5.78;;
65936;SDS011;52707;52.086;5.418;2023-06-10T04:22:55;10.25;;;6.05;;
65936;SDS011;52707;52.086;5.418;2023-06-10T04:25:22;13.63;;;6.10;;
65936;SDS011;52707;52.086;5.418;2023-06-10T04:27:49;10.70;;;5.80;;
65936;SDS011;52707;52.086;5.418;2023-06-10T04:30:16;9.20;;;5.35;;
65936;SDS011;52707;52.086;5.418;2023-06-10T04:32:42;17.45;;;6.65;;
65936;SDS011;52707;52.086;5.418;2023-06-10T04:35:11;16.30;;;6.57;;
65936;SDS011;52707;52.086;5.418;2023-06-10T04:37:37;17.83;;;5.82;;
65936;SDS011;52707;52.086;5.418;2023-06-10T04:40:04;14.43;;;6.60;;
65936;SDS011;52707;52.086;5.418;2023-06-10T04:42:31;14.25;;;5.55;;
65936;SDS011;52707;52.086;5.418;2023-06-10T04:44:58;16.05;;;5.75;;
65936;SDS011;52707;52.086;5.418;2023-06-10T04:47:24;16.42;;;6.53;;
65936;SDS011;52707;52.086;5.418;2023-06-10T04:49:50;11.50;;;6.00;;
65936;SDS011;52707;52.086;5.418;2023-06-10T04:52:17;10.88;;;6.20;;
65936;SDS011;52707;52.086;5.418;2023-06-10T04:54:44;14.70;;;5.63;;
65936;SDS011;52707;52.086;5.418;2023-06-10T04:57:11;15.30;;;6.25;;
65936;SDS011;52707;52.086;5.418;2023-06-10T04:59:37;17.08;;;6.47;;
65936;SDS011;52707;52.086;5.418;2023-06-10T05:02:04;11.55;;;6.30;;
65936;SDS011;52707;52.086;5.418;2023-06-10T05:04:31;13.05;;;6.18;;
65936;SDS011;52707;52.086;5.418;2023-06-10T05:06:57;13.60;;;5.95;;
65936;SDS011;52707;52.086;5.418;2023-06-10T05:09:24;13.00;;;5.85;;
65936;SDS011;52707;52.086;5.418;2023-06-10T05:11:52;20.33;;;6.40;;
65936;SDS011;52707;52.086;5.418;2023-06-10T05:14:20;16.98;;;5.55;;
65936;SDS011;52707;52.086;5.418;2023-06-10T05:16:49;15.07;;;7.78;;
65936;SDS011;52707;52.086;5.418;2023-06-10T05:19:16;14.48;;;6.55;;
65936;SDS011;52707;52.086;5.418;2023-06-10T05:21:43;11.88;;;6.25;;
65936;SDS011;52707;52.086;5.418;2023-06-10T05:24:10;13.07;;;6.22;;
65936;SDS011;52707;52.086;5.418;2023-06-10T05:26:36;11.35;;;6.13;;
65936;SDS011;52707;52.086;5.418;2023-06-10T05:29:04;13.10;;;6.18;;
65936;SDS011;52707;52.086;5.418;2023-06-10T05:31:31;13.38;;;5.72;;
65936;SDS011;52707;52.086;5.418;2023-06-10T05:33:57;17.38;;;5.90;;
65936;SDS011;52707;52.086;5.418;2023-06-10T05:36:24;13.63;;;5.97;;
65936;SDS011;52707;52.086;5.418;2023-06-10T05:38:52;14.18;;;6.20;;
65936;SDS011;52707;52.086;5.418;2023-06-10T05:41:18;17.75;;;6.80;;
65936;SDS011;52707;52.086;5.418;2023-06-10T05:43:44;18.02;;;6.75;;
65936;SDS011;52707;52.086;5.418;2023-06-10T05:46:11;12.68;;;6.55;;
65936;SDS011;52707;52.086;5.418;2023-06-10T05:48:38;22.92;;;5.80;;
65936;SDS011;52707;52.086;5.418;2023-06-10T05:51:04;15.38;;;6.45;;
65936;SDS011;52707;52.086;5.418;2023-06-10T05:53:31;14.57;;;6.28;;
65936;SDS011;52707;52.086;5.418;2023-06-10T05:55:58;15.13;;;6.78;;
65936;SDS011;52707;52.086;5.418;2023-06-10T05:58:24;19.38;;;7.20;;
65936;SDS011;52707;52.086;5.418;2023-06-10T06:00:50;18.13;;;6.93;;
65936;SDS011;52707;52.086;5.418;2023-06-10T06:03:17;20.27;;;6.00;;
65936;SDS011;52707;52.086;5.418;2023-06-10T06:05:44;12.27;;;6.47;;
65936;SDS011;52707;52.086;5.418;2023-06-10T06:08:10;19.30;;;6.90;;
65936;SDS011;52707;52.086;5.418;2023-06-10T06:10:36;13.27;;;6.03;;
65936;SDS011;52707;52.086;5.418;2023-06-10T06:13:03;21.23;;;6.45;;
65936;SDS011;52707;52.086;5.418;2023-06-10T06:15:29;10.35;;;6.35;;
65936;SDS011;52707;52.086;5.418;2023-06-10T06:17:55;11.95;;;5.88;;
65936;SDS011;52707;52.086;5.418;2023-06-10T06:20:22;17.55;;;6.80;;
65936;SDS011;52707;52.086;5.418;2023-06-10T06:22:49;15.98;;;6.50;;
65936;SDS011;52707;52.086;5.418;2023-06-10T06:25:15;17.98;;;7.20;;
65936;SDS011;52707;52.086;5.418;2023-06-10T06:27:41;12.35;;;6.22;;
65936;SDS011;52707;52.086;5.418;2023-06-10T06:30:08;23.45;;;6.25;;
65936;SDS011;52707;52.086;5.418;2023-06-10T06:32:34;20.17;;;7.10;;
65936;SDS011;52707;52.086;5.418;2023-06-10T06:35:01;9.20;;;5.95;;
65936;SDS011;52707;52.086;5.418;2023-06-10T06:37:27;13.45;;;6.13;;
65936;SDS011;52707;52.086;5.418;2023-06-10T06:39:54;10.48;;;6.22;;
65936;SDS011;52707;52.086;5.418;2023-06-10T06:42:20;14.40;;;5.53;;
65936;SDS011;52707;52.086;5.418;2023-06-10T06:44:47;11.63;;;5.65;;
65936;SDS011;52707;52.086;5.418;2023-06-10T06:47:13;10.98;;;6.38;;
65936;SDS011;52707;52.086;5.418;2023-06-10T06:49:40;20.25;;;6.13;;
65936;SDS011;52707;52.086;5.418;2023-06-10T06:52:06;13.52;;;5.65;;
65936;SDS011;52707;52.086;5.418;2023-06-10T06:54:32;12.18;;;6.10;;
65936;SDS011;52707;52.086;5.418;2023-06-10T06:56:59;16.70;;;6.63;;
65936;SDS011;52707;52.086;5.418;2023-06-10T06:59:25;13.77;;;6.32;;
65936;SDS011;52707;52.086;5.418;2023-06-10T07:01:52;17.20;;;6.60;;
65936;SDS011;52707;52.086;5.418;2023-06-10T07:04:20;13.68;;;5.85;;
65936;SDS011;52707;52.086;5.418;2023-06-10T07:06:48;8.82;;;5.45;;
65936;SDS011;52707;52.086;5.418;2023-06-10T07:09:14;9.75;;;5.80;;
65936;SDS011;52707;52.086;5.418;2023-06-10T07:11:41;13.48;;;5.90;;
65936;SDS011;52707;52.086;5.418;2023-06-10T07:14:07;15.85;;;6.25;;
65936;SDS011;52707;52.086;5.418;2023-06-10T07:16:34;9.65;;;6.00;;
65936;SDS011;52707;52.086;5.418;2023-06-10T07:19:00;9.98;;;6.10;;
65936;SDS011;52707;52.086;5.418;2023-06-10T07:21:30;14.00;;;5.60;;
65936;SDS011;52707;52.086;5.418;2023-06-10T07:23:56;12.70;;;5.63;;
65936;SDS011;52707;52.086;5.418;2023-06-10T07:26:23;13.52;;;6.03;;
65936;SDS011;52707;52.086;5.418;2023-06-10T07:28:49;12.07;;;4.85;;
65936;SDS011;52707;52.086;5.418;2023-06-10T07:31:15;14.60;;;5.38;;
65936;SDS011;52707;52.086;5.418;2023-06-10T07:33:42;11.82;;;6.10;;
65936;SDS011;52707;52.086;5.418;2023-06-10T07:36:09;20.83;;;6.05;;
65936;SDS011;52707;52.086;5.418;2023-06-10T07:38:36;15.73;;;5.05;;
65936;SDS011;52707;52.086;5.418;2023-06-10T07:41:03;9.45;;;5.20;;
65936;SDS011;52707;52.086;5.418;2023-06-10T07:43:29;12.40;;;5.63;;
65936;SDS011;52707;52.086;5.418;2023-06-10T07:45:55;8.95;;;4.93;;
65936;SDS011;52707;52.086;5.418;2023-06-10T07:48:22;16.23;;;5.20;;
65936;SDS011;52707;52.086;5.418;2023-06-10T07:50:48;25.33;;;5.97;;
65936;SDS011;52707;52.086;5.418;2023-06-10T07:53:14;13.55;;;5.38;;
65936;SDS011;52707;52.086;5.418;2023-06-10T07:55:41;9.18;;;5.30;;
65936;SDS011;52707;52.086;5.418;2023-06-10T07:58:07;11.93;;;5.13;;
65936;SDS011;52707;52.086;5.418;2023-06-10T08:00:33;10.10;;;5.88;;
65936;SDS011;52707;52.086;5.418;2023-06-10T08:03:00;16.23;;;6.35;;
65936;SDS011;52707;52.086;5.418;2023-06-10T08:05:26;12.15;;;5.57;;
65936;SDS011;52707;52.086;5.418;2023-06-10T08:07:53;8.48;;;5.53;;
65936;SDS011;52707;52.086;5.418;2023-06-10T08:10:19;9.68;;;4.93;;
65936;SDS011;52707;52.086;5.418;2023-06-10T08:12:45;16.23;;;5.43;;
65936;SDS011;52707;52.086;5.418;2023-06-10T08:15:12;13.82;;;5.72;;
65936;SDS011;52707;52.086;5.418;2023-06-10T08:17:38;10.43;;;4.85;;
65936;SDS011;52707;52.086;5.418;2023-06-10T08:20:06;14.18;;;5.75;;
65936;SDS011;52707;52.086;5.418;2023-06-10T08:22:32;17.05;;;5.50;;
65936;SDS011;52707;52.086;5.418;2023-06-10T08:24:59;9.30;;;4.85;;
65936;SDS011;52707;52.086;5.418;2023-06-10T08:27:26;11.65;;;4.90;;
65936;SDS011;52707;52.086;5.418;2023-06-10T08:29:52;12.40;;;5.20;;
65936;SDS011;52707;52.086;5.418;2023-06-10T08:32:19;18.63;;;5.18;;
65936;SDS011;52707;52.086;5.418;2023-06-10T08:34:45;9.80;;;4.75;;
65936;SDS011;52707;52.086;5.418;2023-06-10T08:37:11;7.40;;;4.93;;
65936;SDS011;52707;52.086;5.418;2023-06-10T08:39:38;9.23;;;4.68;;
65936;SDS011;52707;52.086;5.418;2023-06-10T08:42:07;12.82;;;4.70;;
65936;SDS011;52707;52.086;5.418;2023-06-10T08:44:36;12.13;;;4.53;;
65936;SDS011;52707;52.086;5.418;2023-06-10T08:47:11;12.00;;;4.68;;
65936;SDS011;52707;52.086;5.418;2023-06-10T08:49:41;12.25;;;4.68;;
65936;SDS011;52707;52.086;5.418;2023-06-10T08:52:07;10.10;;;4.38;;
65936;SDS011;52707;52.086;5.418;2023-06-10T08:54:35;12.45;;;4.80;;
65936;SDS011;52707;52.086;5.418;2023-06-10T08:57:04;10.27;;;4.68;;
65936;SDS011;52707;52.086;5.418;2023-06-10T08:59:31;14.15;;;4.18;;
65936;SDS011;52707;52.086;5.418;2023-06-10T09:01:58;8.32;;;4.90;;
65936;SDS011;52707;52.086;5.418;2023-06-10T09:04:25;11.63;;;4.43;;
65936;SDS011;52707;52.086;5.418;2023-06-10T09:06:52;8.45;;;4.35;;
65936;SDS011;52707;52.086;5.418;2023-06-10T09:09:19;10.55;;;4.30;;
65936;SDS011;52707;52.086;5.418;2023-06-10T09:11:46;5.50;;;3.90;;
65936;SDS011;52707;52.086;5.418;2023-06-10T09:14:12;11.70;;;4.78;;
65936;SDS011;52707;52.086;5.418;2023-06-10T09:16:40;6.90;;;4.00;;
65936;SDS011;52707;52.086;5.418;2023-06-10T09:19:07;9.35;;;4.40;;
65936;SDS011;52707;52.086;5.418;2023-06-10T09:21:36;9.47;;;4.80;;
65936;SDS011;52707;52.086;5.418;2023-06-10T09:24:03;7.05;;;4.10;;
65936;SDS011;52707;52.086;5.418;2023-06-10T09:26:30;11.68;;;4.28;;
65936;SDS011;52707;52.086;5.418;2023-06-10T09:29:06;13.60;;;4.28;;
65936;SDS011;52707;52.086;5.418;2023-06-10T09:31:35;14.68;;;4.57;;
65936;SDS011;52707;52.086;5.418;2023-06-10T09:34:08;13.85;;;4.70;;
65936;SDS011;52707;52.086;5.418;2023-06-10T09:36:35;10.02;;;4.13;;
65936;SDS011;52707;52.086;5.418;2023-06-10T09:39:02;10.82;;;4.78;;
65936;SDS011;52707;52.086;5.418;2023-06-10T09:41:32;10.27;;;4.25;;
65936;SDS011;52707;52.086;5.418;2023-06-10T09:43:59;8.43;;;4.80;;
65936;SDS011;52707;52.086;5.418;2023-06-10T09:46:29;10.07;;;4.75;;
65936;SDS011;52707;52.086;5.418;2023-06-10T09:48:56;10.68;;;4.72;;
65936;SDS011;52707;52.086;5.418;2023-06-10T09:51:23;5.22;;;3.78;;
65936;SDS011;52707;52.086;5.418;2023-06-10T09:53:53;6.38;;;3.95;;
65936;SDS011;52707;52.086;5.418;2023-06-10T09:56:19;12.77;;;4.38;;
65936;SDS011;52707;52.086;5.418;2023-06-10T09:58:47;15.10;;;4.38;;
65936;SDS011;52707;52.086;5.418;2023-06-10T10:01:13;5.32;;;3.55;;
65936;SDS011;52707;52.086;5.418;2023-06-10T10:03:44;8.57;;;4.00;;
65936;SDS011;52707;52.086;5.418;2023-06-10T10:06:11;8.98;;;4.05;;
65936;SDS011;52707;52.086;5.418;2023-06-10T10:08:38;15.82;;;4.63;;
65936;SDS011;52707;52.086;5.418;2023-06-10T10:11:04;21.95;;;4.35;;
65936;SDS011;52707;52.086;5.418;2023-06-10T10:13:32;10.25;;;4.10;;
65936;SDS011;52707;52.086;5.418;2023-06-10T10:15:59;8.85;;;4.45;;
65936;SDS011;52707;52.086;5.418;2023-06-10T10:18:29;15.73;;;4.20;;
65936;SDS011;52707;52.086;5.418;2023-06-10T10:21:00;6.35;;;4.03;;
65936;SDS011;52707;52.086;5.418;2023-06-10T10:23:32;14.52;;;4.18;;
65936;SDS011;52707;52.086;5.418;2023-06-10T10:26:02;7.28;;;3.90;;
65936;SDS011;52707;52.086;5.418;2023-06-10T10:28:34;6.25;;;3.95;;
65936;SDS011;52707;52.086;5.418;2023-06-10T10:31:07;11.13;;;3.85;;
65936;SDS011;52707;52.086;5.418;2023-06-10T10:33:42;10.65;;;3.90;;
65936;SDS011;52707;52.086;5.418;2023-06-10T10:36:12;8.02;;;4.07;;
65936;SDS011;52707;52.086;5.418;2023-06-10T10:38:39;5.70;;;3.10;;
65936;SDS011;52707;52.086;5.418;2023-06-10T10:41:06;11.75;;;3.92;;
65936;SDS011;52707;52.086;5.418;2023-06-10T10:43:33;4.60;;;3.47;;
65936;SDS011;52707;52.086;5.418;2023-06-10T10:46:00;7.10;;;3.80;;
65936;SDS011;52707;52.086;5.418;2023-06-10T10:48:32;7.65;;;4.15;;
65936;SDS011;52707;52.086;5.418;2023-06-10T10:50:59;8.80;;;4.00;;
65936;SDS011;52707;52.086;5.418;2023-06-10T10:53:25;6.03;;;3.63;;
65936;SDS011;52707;52.086;5.418;2023-06-10T10:56:26;7.10;;;3.53;;
65936;SDS011;52707;52.086;5.418;2023-06-10T11:01:40;9.73;;;3.83;;
65936;SDS011;52707;52.086;5.418;2023-06-10T11:04:07;12.77;;;4.03;;
65936;SDS011;52707;52.086;5.418;2023-06-10T11:06:35;5.38;;;3.60;;
65936;SDS011;52707;52.086;5.418;2023-06-10T11:09:02;8.13;;;3.67;;
65936;SDS011;52707;52.086;5.418;2023-06-10T11:11:50;7.13;;;4.07;;
65936;SDS011;52707;52.086;5.418;2023-06-10T11:14:26;5.57;;;4.00;;
65936;SDS011;52707;52.086;5.418;2023-06-10T11:16:56;8.25;;;3.80;;
65936;SDS011;52707;52.086;5.418;2023-06-10T11:19:35;5.72;;;3.72;;
65936;SDS011;52707;52.086;5.418;2023-06-10T11:22:06;5.93;;;3.63;;
65936;SDS011;52707;52.086;5.418;2023-06-10T11:24:32;12.90;;;3.55;;
65936;SDS011;52707;52.086;5.418;2023-06-10T11:27:15;23.45;;;4.10;;
65936;SDS011;52707;52.086;5.418;2023-06-10T11:32:25;11.75;;;3.95;;
65936;SDS011;52707;52.086;5.418;2023-06-10T11:34:55;10.35;;;3.65;;
65936;SDS011;52707;52.086;5.418;2023-06-10T11:37:21;12.32;;;4.20;;
65936;SDS011;52707;52.086;5.418;2023-06-10T11:39:52;8.25;;;3.42;;
65936;SDS011;52707;52.086;5.418;2023-06-10T11:42:18;9.27;;;3.78;;
65936;SDS011;52707;52.086;5.418;2023-06-10T11:44:48;6.18;;;3.65;;
65936;SDS011;52707;52.086;5.418;2023-06-10T11:49:41;11.50;;;3.50;;
65936;SDS011;52707;52.086;5.418;2023-06-10T11:52:11;11.35;;;3.75;;
65936;SDS011;52707;52.086;5.418;2023-06-10T11:54:38;3.60;;;3.30;;
65936;SDS011;52707;52.086;5.418;2023-06-10T11:57:04;9.57;;;4.13;;
65936;SDS011;52707;52.086;5.418;2023-06-10T11:59:30;10.30;;;3.35;;
65936;SDS011;52707;52.086;5.418;2023-06-10T12:01:57;9.63;;;3.92;;
65936;SDS011;52707;52.086;5.418;2023-06-10T12:04:24;9.02;;;3.83;;
65936;SDS011;52707;52.086;5.418;2023-06-10T12:06:52;10.40;;;3.90;;
65936;SDS011;52707;52.086;5.418;2023-06-10T12:11:57;9.20;;;3.88;;
65936;SDS011;52707;52.086;5.418;2023-06-10T12:17:09;5.82;;;3.70;;
65936;SDS011;52707;52.086;5.418;2023-06-10T12:19:39;12.57;;;3.70;;
65936;SDS011;52707;52.086;5.418;2023-06-10T12:22:06;6.85;;;4.32;;
65936;SDS011;52707;52.086;5.418;2023-06-10T12:24:33;6.97;;;3.40;;
65936;SDS011;52707;52.086;5.418;2023-06-10T12:26:59;9.15;;;3.53;;
65936;SDS011;52707;52.086;5.418;2023-06-10T12:29:26;9.50;;;3.75;;
65936;SDS011;52707;52.086;5.418;2023-06-10T12:34:18;10.10;;;3.35;;
65936;SDS011;52707;52.086;5.418;2023-06-10T12:36:50;6.32;;;3.80;;
65936;SDS011;52707;52.086;5.418;2023-06-10T12:39:17;12.05;;;3.97;;
65936;SDS011;52707;52.086;5.418;2023-06-10T12:41:47;3.80;;;3.38;;
65936;SDS011;52707;52.086;5.418;2023-06-10T12:44:14;13.68;;;3.42;;
65936;SDS011;52707;52.086;5.418;2023-06-10T12:46:41;6.20;;;3.97;;
65936;SDS011;52707;52.086;5.418;2023-06-10T12:49:08;7.07;;;3.70;;
65936;SDS011;52707;52.086;5.418;2023-06-10T12:51:34;12.70;;;4.30;;
65936;SDS011;52707;52.086;5.418;2023-06-10T12:54:01;11.57;;;3.90;;
65936;SDS011;52707;52.086;5.418;2023-06-10T12:56:28;6.00;;;3.88;;
65936;SDS011;52707;52.086;5.418;2023-06-10T12:58:55;6.80;;;3.50;;
65936;SDS011;52707;52.086;5.418;2023-06-10T13:01:21;13.13;;;4.10;;
65936;SDS011;52707;52.086;5.418;2023-06-10T13:03:47;4.93;;;3.25;;
65936;SDS011;52707;52.086;5.418;2023-06-10T13:06:14;6.00;;;4.10;;
65936;SDS011;52707;52.086;5.418;2023-06-10T13:08:40;9.10;;;3.78;;
65936;SDS011;52707;52.086;5.418;2023-06-10T13:11:07;9.18;;;3.90;;
65936;SDS011;52707;52.086;5.418;2023-06-10T13:13:36;12.38;;;3.90;;
65936;SDS011;52707;52.086;5.418;2023-06-10T13:16:03;6.97;;;3.50;;
65936;SDS011;52707;52.086;5.418;2023-06-10T13:18:29;10.52;;;3.83;;
65936;SDS011;52707;52.086;5.418;2023-06-10T13:20:56;6.90;;;3.80;;
65936;SDS011;52707;52.086;5.418;2023-06-10T13:23:22;8.85;;;3.72;;
65936;SDS011;52707;52.086;5.418;2023-06-10T13:25:48;10.70;;;4.07;;
65936;SDS011;52707;52.086;5.418;2023-06-10T13:28:15;6.07;;;3.97;;
65936;SDS011;52707;52.086;5.418;2023-06-10T13:30:41;5.95;;;4.13;;
65936;SDS011;52707;52.086;5.418;2023-06-10T13:33:08;8.60;;;4.07;;
65936;SDS011;52707;52.086;5.418;2023-06-10T13:35:34;11.45;;;4.10;;
65936;SDS011;52707;52.086;5.418;2023-06-10T13:38:01;7.68;;;4.40;;
65936;SDS011;52707;52.086;5.418;2023-06-10T13:40:27;15.73;;;4.00;;
65936;SDS011;52707;52.086;5.418;2023-06-10T13:42:53;8.15;;;3.63;;
65936;SDS011;52707;52.086;5.418;2023-06-10T13:45:20;6.50;;;3.72;;
65936;SDS011;52707;52.086;5.418;2023-06-10T13:47:46;6.93;;;4.05;;
65936;SDS011;52707;52.086;5.418;2023-06-10T13:50:13;5.38;;;3.53;;
65936;SDS011;52707;52.086;5.418;2023-06-10T13:52:39;11.93;;;3.92;;
65936;SDS011;52707;52.086;5.418;2023-06-10T13:55:06;5.35;;;3.53;;
65936;SDS011;52707;52.086;5.418;2023-06-10T13:57:33;7.30;;;3.55;;
65936;SDS011;52707;52.086;5.418;2023-06-10T13:59:59;5.70;;;3.60;;
65936;SDS011;52707;52.086;5.418;2023-06-10T14:02:26;11.10;;;4.10;;
65936;SDS011;52707;52.086;5.418;2023-06-10T14:04:55;6.63;;;3.70;;
65936;SDS011;52707;52.086;5.418;2023-06-10T14:07:21;5.07;;;3.88;;
65936;SDS011;52707;52.086;5.418;2023-06-10T14:09:48;9.68;;;3.90;;
65936;SDS011;52707;52.086;5.418;2023-06-10T14:12:15;8.88;;;3.60;;
65936;SDS011;52707;52.086;5.418;2023-06-10T14:14:41;4.03;;;3.58;;
65936;SDS011;52707;52.086;5.418;2023-06-10T14:17:08;9.90;;;3.70;;
65936;SDS011;52707;52.086;5.418;2023-06-10T14:19:34;10.30;;;3.78;;
65936;SDS011;52707;52.086;5.418;2023-06-10T14:22:00;8.07;;;3.72;;
65936;SDS011;52707;52.086;5.418;2023-06-10T14:24:27;5.63;;;3.65;;
65936;SDS011;52707;52.086;5.418;2023-06-10T14:26:53;9.23;;;3.60;;
65936;SDS011;52707;52.086;5.418;2023-06-10T14:29:20;11.20;;;3.72;;
65936;SDS011;52707;52.086;5.418;2023-06-10T14:31:46;3.47;;;3.17;;
65936;SDS011;52707;52.086;5.418;2023-06-10T14:34:13;4.85;;;3.47;;
65936;SDS011;52707;52.086;5.418;2023-06-10T14:36:39;12.45;;;4.07;;
65936;SDS011;52707;52.086;5.418;2023-06-10T14:39:06;9.70;;;3.33;;
65936;SDS011;52707;52.086;5.418;2023-06-10T14:41:32;6.63;;;3.20;;
65936;SDS011;52707;52.086;5.418;2023-06-10T14:43:58;12.27;;;3.75;;
65936;SDS011;52707;52.086;5.418;2023-06-10T14:46:24;6.43;;;3.40;;
65936;SDS011;52707;52.086;5.418;2023-06-10T14:48:51;4.85;;;3.53;;
65936;SDS011;52707;52.086;5.418;2023-06-10T14:51:17;9.23;;;3.92;;
65936;SDS011;52707;52.086;5.418;2023-06-10T14:53:44;10.07;;;4.03;;
65936;SDS011;52707;52.086;5.418;2023-06-10T14:56:11;13.80;;;9.57;;
65936;SDS011;52707;52.086;5.418;2023-06-10T14:58:38;8.05;;;3.40;;